createdAt,value
2019-05-17T00:00:48.772Z,101699.84
2019-05-17T00:03:22.428Z,101695.34
2019-05-17T00:05:54.431Z,101685.20
2019-05-17T00:08:33.821Z,101686.34
2019-05-17T00:11:00.109Z,101681.80
2019-05-17T00:13:32.704Z,101679.27
2019-05-17T00:16:07.250Z,101672.30
2019-05-17T00:18:39.109Z,101673.48
2019-05-17T00:21:11.079Z,101669.39
2019-05-17T00:23:43.397Z,101672.65
2019-05-17T00:26:16.453Z,101669.07
2019-05-17T00:28:48.685Z,101666.42
2019-05-17T00:31:20.736Z,101669.70
2019-05-17T00:33:52.742Z,101666.91
2019-05-17T00:36:26.995Z,101660.45
2019-05-17T00:38:59.288Z,101661.66
2019-05-17T00:41:31.257Z,101662.75
2019-05-17T00:44:03.639Z,101659.35
2019-05-17T00:46:37.266Z,101659.09
2019-05-17T00:49:09.351Z,101657.18
2019-05-17T00:51:41.406Z,101647.53
2019-05-17T00:54:13.399Z,101646.05
2019-05-17T00:56:46.424Z,101641.22
2019-05-17T00:59:18.460Z,101587.73
2019-05-17T01:01:50.423Z,101644.89
2019-05-17T01:04:22.397Z,101641.89
2019-05-17T01:06:56.307Z,101638.26
2019-05-17T01:09:28.698Z,101645.83
2019-05-17T01:12:00.814Z,101641.36
2019-05-17T01:14:32.867Z,101638.19
2019-05-17T01:17:07.075Z,101639.40
2019-05-17T01:19:38.712Z,101638.08
2019-05-17T01:22:10.684Z,101639.69
2019-05-17T01:24:42.644Z,101639.25
2019-05-17T01:27:17.056Z,101636.60
2019-05-17T01:29:48.367Z,101628.45
2019-05-17T01:32:20.461Z,101625.61
2019-05-17T01:34:52.424Z,101630.48
2019-05-17T01:37:24.524Z,101627.84
2019-05-17T01:39:57.406Z,101624.62
2019-05-17T01:42:29.509Z,101622.28
2019-05-17T01:45:01.492Z,101621.89
2019-05-17T01:47:33.441Z,101619.49
2019-05-17T01:50:10.807Z,101620.59
2019-05-17T01:52:42.846Z,101620.86
2019-05-17T01:55:17.184Z,101620.30
2019-05-17T01:57:49.012Z,101620.62
2019-05-17T02:00:21.390Z,101620.06
2019-05-17T02:02:57.588Z,101567.16
2019-05-17T02:05:29.028Z,101618.02
2019-05-17T02:08:01.084Z,101622.13
2019-05-17T02:10:33.033Z,101615.92
2019-05-17T02:13:06.573Z,101616.25
2019-05-17T02:15:38.815Z,101609.41
2019-05-17T02:18:10.785Z,101613.08
2019-05-17T02:20:42.892Z,101553.39
2019-05-17T02:23:17.251Z,101608.80
2019-05-17T02:25:48.597Z,101612.85
2019-05-17T02:28:21.386Z,101605.63
2019-05-17T02:30:53.591Z,101602.33
2019-05-17T02:33:26.114Z,101600.97
2019-05-17T02:35:58.168Z,101604.24
2019-05-17T02:38:32.871Z,101597.23
2019-05-17T02:41:03.915Z,101597.19
2019-05-17T02:43:36.051Z,101590.60
2019-05-17T02:46:08.258Z,101596.52
2019-05-17T02:48:42.790Z,101595.75
2019-05-17T02:51:14.061Z,101605.09
2019-05-17T02:53:46.117Z,101599.36
2019-05-17T02:56:18.183Z,101602.75
2019-05-17T02:58:53.014Z,101601.33
2019-05-17T03:01:24.218Z,101605.98
2019-05-17T03:03:56.229Z,101608.11
2019-05-17T03:06:28.201Z,101541.48
2019-05-17T03:09:03.122Z,101600.91
2019-05-17T03:11:34.005Z,101599.25
2019-05-17T03:14:06.212Z,101598.16
2019-05-17T03:16:38.297Z,101602.42
2019-05-17T03:19:13.069Z,101603.56
2019-05-17T03:21:43.983Z,101605.65
2019-05-17T03:24:16.009Z,101603.05
2019-05-17T03:26:48.080Z,101601.06
2019-05-17T03:29:22.794Z,101603.16
2019-05-17T03:32:00.195Z,101602.61
2019-05-17T03:34:29.463Z,101599.25
2019-05-17T03:37:06.409Z,101600.66
2019-05-17T03:39:35.127Z,101596.00
2019-05-17T03:42:07.130Z,101593.26
2019-05-17T03:44:39.150Z,101593.36
2019-05-17T03:47:13.144Z,101590.19
2019-05-17T03:49:45.205Z,101595.91
2019-05-17T03:52:17.169Z,101598.66
2019-05-17T03:54:52.804Z,101604.11
2019-05-17T03:57:24.103Z,101606.52
2019-05-17T03:59:56.991Z,101611.05
2019-05-17T04:02:32.436Z,101609.57
2019-05-17T04:05:04.280Z,101609.78
2019-05-17T04:07:36.513Z,101606.34
2019-05-17T04:10:09.595Z,101613.14
2019-05-17T04:12:44.141Z,101618.56
2019-05-17T04:15:17.462Z,101614.72
2019-05-17T04:17:52.700Z,101581.47
2019-05-17T04:20:23.346Z,101612.84
2019-05-17T04:23:03.440Z,101608.22
2019-05-17T04:25:34.036Z,101604.64
2019-05-17T04:28:06.382Z,101603.81
2019-05-17T04:30:38.692Z,101599.84
2019-05-17T04:33:12.835Z,101601.83
2019-05-17T04:35:44.498Z,101609.55
2019-05-17T04:38:16.494Z,101606.87
2019-05-17T04:40:48.475Z,101557.12
2019-05-17T04:43:23.106Z,101612.25
2019-05-17T04:45:54.301Z,101608.08
2019-05-17T04:48:26.306Z,101605.70
2019-05-17T04:50:58.718Z,101597.34
2019-05-17T04:53:32.853Z,101597.22
2019-05-17T04:56:04.601Z,101603.23
2019-05-17T04:58:37.066Z,101549.14
2019-05-17T05:01:09.096Z,101596.70
2019-05-17T05:03:42.955Z,101595.16
2019-05-17T05:06:14.973Z,101589.20
2019-05-17T05:08:47.210Z,101589.06
2019-05-17T05:11:19.826Z,101587.22
2019-05-17T05:13:53.506Z,101586.53
2019-05-17T05:16:25.775Z,101586.76
2019-05-17T05:18:57.804Z,101591.08
2019-05-17T05:21:32.290Z,101596.87
2019-05-17T05:24:03.513Z,101593.80
2019-05-17T05:26:35.473Z,101539.27
2019-05-17T05:29:12.777Z,101595.60
2019-05-17T05:31:47.094Z,101592.95
2019-05-17T05:34:21.473Z,101586.17
2019-05-17T05:36:54.951Z,101591.34
2019-05-17T05:39:31.816Z,101535.86
2019-05-17T05:42:08.085Z,101584.32
2019-05-17T05:44:37.222Z,101578.20
2019-05-17T05:47:11.620Z,101578.30
2019-05-17T05:49:45.546Z,101575.38
2019-05-17T05:52:17.864Z,101580.64
2019-05-17T05:54:51.995Z,101584.60
2019-05-17T05:57:25.206Z,101578.80
2019-05-17T05:59:58.773Z,101576.75
2019-05-17T06:02:32.308Z,101582.07
2019-05-17T06:05:08.936Z,101574.95
2019-05-17T06:07:44.200Z,101575.80
2019-05-17T06:10:18.578Z,101575.74
2019-05-17T06:12:51.741Z,101570.69
2019-05-17T06:15:24.302Z,101574.76
2019-05-17T06:17:56.506Z,101582.29
2019-05-17T06:20:28.475Z,101588.14
2019-05-17T06:23:02.588Z,101593.99
2019-05-17T06:25:34.721Z,101593.41
2019-05-17T06:28:06.693Z,101583.31
2019-05-17T06:30:38.676Z,101572.57
2019-05-17T06:33:11.940Z,101568.65
2019-05-17T06:35:44.859Z,101578.69
2019-05-17T06:38:17.122Z,101577.52
2019-05-17T06:40:49.088Z,101574.93
2019-05-17T06:43:21.533Z,101561.30
2019-05-17T06:45:53.676Z,101565.49
2019-05-17T06:48:26.026Z,101508.47
2019-05-17T06:50:58.068Z,101513.47
2019-05-17T06:53:32.154Z,101566.20
2019-05-17T06:56:04.130Z,101564.00
2019-05-17T06:58:36.537Z,101565.48
2019-05-17T07:01:09.523Z,101561.48
2019-05-17T07:03:41.593Z,101557.09
2019-05-17T07:06:15.304Z,101555.39
2019-05-17T07:08:49.445Z,101552.16
2019-05-17T07:11:21.188Z,101555.64
2019-05-17T07:13:53.862Z,101555.61
2019-05-17T07:16:30.126Z,101554.30
2019-05-17T07:19:02.150Z,101554.73
2019-05-17T07:21:34.165Z,101549.92
2019-05-17T07:24:06.419Z,101549.40
2019-05-17T07:26:39.377Z,101544.50
2019-05-17T07:29:11.427Z,101548.02
2019-05-17T07:31:43.403Z,101551.70
2019-05-17T07:34:15.664Z,101551.56
2019-05-17T07:36:47.681Z,101550.25
2019-05-17T07:39:20.433Z,101550.08
2019-05-17T07:41:52.644Z,101549.28
2019-05-17T07:44:24.750Z,101549.75
2019-05-17T07:46:56.873Z,101547.28
2019-05-17T07:49:29.414Z,101545.86
2019-05-17T07:52:01.791Z,101548.90
2019-05-17T07:54:33.799Z,101539.84
2019-05-17T07:57:05.794Z,101543.42
2019-05-17T07:59:39.753Z,101538.15
2019-05-17T08:02:11.728Z,101535.94
2019-05-17T08:04:43.693Z,101532.10
2019-05-17T08:07:15.770Z,101531.09
2019-05-17T08:09:47.816Z,101535.95
2019-05-17T08:12:20.093Z,101523.97
2019-05-17T08:14:52.160Z,101527.78
2019-05-17T08:17:24.215Z,101524.87
2019-05-17T08:19:56.589Z,101524.72
2019-05-17T08:22:29.386Z,101521.13
2019-05-17T08:25:01.456Z,101520.89
2019-05-17T08:27:33.443Z,101521.91
2019-05-17T08:30:10.148Z,101519.84
2019-05-17T08:32:41.440Z,101518.73
2019-05-17T08:35:13.748Z,101514.20
2019-05-17T08:37:45.717Z,101511.18
2019-05-17T08:40:19.957Z,101503.31
2019-05-17T08:42:51.666Z,101498.78
2019-05-17T08:45:23.694Z,101498.45
2019-05-17T08:47:55.657Z,101501.82
2019-05-17T08:50:29.401Z,101501.39
2019-05-17T08:53:01.642Z,101501.84
2019-05-17T08:55:33.922Z,101495.17
2019-05-17T08:58:10.247Z,101500.19
2019-05-17T09:00:41.557Z,101492.19
2019-05-17T09:03:13.717Z,101495.09
2019-05-17T09:05:45.760Z,101498.23
2019-05-17T09:08:20.320Z,101500.88
2019-05-17T09:10:51.438Z,101496.26
2019-05-17T09:13:24.245Z,101487.18
2019-05-17T09:15:56.214Z,101482.62
2019-05-17T09:18:30.224Z,101483.05
2019-05-17T09:21:01.959Z,101482.33
2019-05-17T09:23:33.939Z,101481.80
2019-05-17T09:26:05.984Z,101478.34
2019-05-17T09:28:39.441Z,101472.56
2019-05-17T09:31:11.556Z,101469.84
2019-05-17T09:33:43.814Z,101472.04
2019-05-17T09:36:15.915Z,101468.73
2019-05-17T09:38:50.936Z,101468.20
2019-05-17T09:41:23.030Z,101471.14
2019-05-17T09:44:08.660Z,101471.27
2019-05-17T09:46:33.083Z,101472.50
2019-05-17T09:49:10.540Z,101471.61
2019-05-17T09:51:45.562Z,101472.52
2019-05-17T09:54:41.136Z,101466.72
2019-05-17T09:57:04.349Z,101462.56
2019-05-17T09:59:36.424Z,101463.66
2019-05-17T10:02:09.600Z,101461.47
2019-05-17T10:04:41.691Z,101454.24
2019-05-17T10:07:13.949Z,101449.76
2019-05-17T10:09:45.992Z,101444.95
2019-05-17T10:12:20.098Z,101387.11
2019-05-17T10:14:51.994Z,101430.63
2019-05-17T10:17:24.056Z,101426.61
2019-05-17T10:19:56.110Z,101424.59
2019-05-17T10:22:30.318Z,101422.81
2019-05-17T10:25:01.986Z,101428.24
2019-05-17T10:27:33.943Z,101429.65
2019-05-17T10:30:10.247Z,101430.44
2019-05-17T10:32:41.806Z,101430.23
2019-05-17T10:35:13.995Z,101428.73
2019-05-17T10:37:46.334Z,101430.48
2019-05-17T10:40:20.775Z,101429.78
2019-05-17T10:42:52.830Z,101432.25
2019-05-17T10:45:24.866Z,101431.52
2019-05-17T10:47:57.170Z,101432.41
2019-05-17T10:50:29.814Z,101433.40
2019-05-17T10:53:02.009Z,101430.84
2019-05-17T10:55:34.398Z,101424.39
2019-05-17T10:58:06.756Z,101429.11
2019-05-17T11:00:41.385Z,101434.60
2019-05-17T11:03:13.020Z,101436.11
2019-05-17T11:05:45.068Z,101439.17
2019-05-17T11:08:19.575Z,101438.58
2019-05-17T11:10:52.555Z,101440.37
2019-05-17T11:13:24.877Z,101432.98
2019-05-17T11:15:57.040Z,101437.16
2019-05-17T11:18:29.185Z,101436.43
2019-05-17T11:21:02.039Z,101432.73
2019-05-17T11:23:34.420Z,101434.89
2019-05-17T11:26:06.573Z,101436.59
2019-05-17T11:28:38.679Z,101426.25
2019-05-17T11:31:10.461Z,101428.84
2019-05-17T11:33:43.780Z,101429.88
2019-05-17T11:36:17.761Z,101430.91
2019-05-17T11:38:51.383Z,101431.03
2019-05-17T11:41:23.382Z,101432.41
2019-05-17T11:43:56.895Z,101435.23
2019-05-17T11:46:36.095Z,101431.29
2019-05-17T11:49:05.349Z,101435.78
2019-05-17T11:51:38.978Z,101430.06
2019-05-17T11:54:12.383Z,101430.21
2019-05-17T11:56:45.705Z,101432.08
2019-05-17T11:59:18.465Z,101425.55
2019-05-17T12:01:51.938Z,101391.33
2019-05-17T12:04:26.189Z,101428.90
2019-05-17T12:06:59.910Z,101430.31
2019-05-17T12:09:37.442Z,101426.47
2019-05-17T12:12:08.312Z,101423.58
2019-05-17T12:14:41.605Z,101425.31
2019-05-17T12:17:15.018Z,101422.51
2019-05-17T12:19:46.951Z,101415.26
2019-05-17T12:22:19.105Z,101410.53
2019-05-17T12:24:51.321Z,101402.55
2019-05-17T12:27:23.388Z,101396.58
2019-05-17T12:29:55.226Z,101400.11
2019-05-17T12:32:27.103Z,101353.80
2019-05-17T12:34:59.115Z,101393.22
2019-05-17T12:37:32.125Z,101396.70
2019-05-17T12:40:05.743Z,101394.48
2019-05-17T12:42:37.709Z,101389.12
2019-05-17T12:45:10.195Z,101391.40
2019-05-17T12:47:42.471Z,101377.36
2019-05-17T12:50:15.140Z,101381.73
2019-05-17T12:52:47.123Z,101381.84
2019-05-17T12:55:19.314Z,101389.10
2019-05-17T12:57:51.352Z,101380.32
2019-05-17T13:00:23.685Z,101381.34
2019-05-17T13:02:55.671Z,101378.16
2019-05-17T13:05:27.734Z,101370.81
2019-05-17T13:07:59.723Z,101324.81
2019-05-17T13:10:32.110Z,101363.47
2019-05-17T13:13:09.397Z,101359.51
2019-05-17T13:15:40.231Z,101359.07
2019-05-17T13:18:12.300Z,101356.80
2019-05-17T13:20:45.569Z,101360.67
2019-05-17T13:23:17.558Z,101357.73
2019-05-17T13:25:51.005Z,101354.88
2019-05-17T13:28:26.178Z,101351.48
2019-05-17T13:30:58.903Z,101327.12
2019-05-17T13:33:31.077Z,101352.77
2019-05-17T13:36:03.351Z,101354.93
2019-05-17T13:38:35.678Z,101344.09
2019-05-17T13:41:07.788Z,101348.11
2019-05-17T13:43:39.823Z,101347.27
2019-05-17T13:46:12.020Z,101344.45
2019-05-17T13:48:44.309Z,101342.98
2019-05-17T13:51:16.386Z,101349.00
2019-05-17T13:53:48.319Z,101348.47
2019-05-17T13:56:20.453Z,101344.53
2019-05-17T13:58:52.526Z,101347.96
2019-05-17T14:01:24.562Z,101353.23
2019-05-17T14:03:56.663Z,101351.11
2019-05-17T14:06:28.715Z,101341.56
2019-05-17T14:09:00.789Z,101341.73
2019-05-17T14:11:32.891Z,101335.43
2019-05-17T14:14:05.104Z,101327.55
2019-05-17T14:16:37.188Z,101325.59
2019-05-17T14:19:09.258Z,101325.78
2019-05-17T14:21:41.739Z,101324.06
2019-05-17T14:24:14.450Z,101319.52
2019-05-17T14:26:46.564Z,101318.25
2019-05-17T14:29:18.754Z,101316.92
2019-05-17T14:31:50.818Z,101318.66
2019-05-17T14:34:23.630Z,101319.41
2019-05-17T14:36:55.648Z,101318.21
2019-05-17T14:39:27.717Z,101319.81
2019-05-17T14:42:00.170Z,101321.77
2019-05-17T14:44:32.260Z,101323.62
2019-05-17T14:47:04.647Z,101311.87
2019-05-17T14:49:36.708Z,101318.44
2019-05-17T14:52:08.696Z,101320.06
2019-05-17T14:54:43.594Z,101320.27
2019-05-17T14:57:15.568Z,101322.38
2019-05-17T14:59:47.714Z,101274.14
2019-05-17T15:02:19.873Z,101318.06
2019-05-17T15:04:51.919Z,101311.48
2019-05-17T15:07:24.243Z,101301.20
2019-05-17T15:09:56.306Z,101299.32
2019-05-17T15:12:29.049Z,101297.51
2019-05-17T15:15:01.290Z,101300.69
2019-05-17T15:17:35.196Z,101293.86
2019-05-17T15:20:08.242Z,101288.78
2019-05-17T15:22:40.314Z,101290.84
2019-05-17T15:25:12.522Z,101291.95
2019-05-17T15:27:44.763Z,101293.95
2019-05-17T15:30:17.662Z,101293.59
2019-05-17T15:32:49.730Z,101292.73
2019-05-17T15:35:21.888Z,101238.87
2019-05-17T15:37:53.882Z,101284.44
2019-05-17T15:40:26.167Z,101279.86
2019-05-17T15:42:58.123Z,101229.07
2019-05-17T15:45:30.266Z,101284.83
2019-05-17T15:48:02.335Z,101276.82
2019-05-17T15:50:34.483Z,101270.81
2019-05-17T15:53:06.556Z,101271.36
2019-05-17T15:55:38.631Z,101265.62
2019-05-17T15:58:10.926Z,101266.27
2019-05-17T16:00:42.884Z,101263.19
2019-05-17T16:03:14.928Z,101267.02
2019-05-17T16:05:47.186Z,101265.22
2019-05-17T16:08:19.156Z,101261.23
2019-05-17T16:10:51.360Z,101259.41
2019-05-17T16:13:23.317Z,101207.61
2019-05-17T16:15:55.453Z,101248.93
2019-05-17T16:18:27.920Z,101245.38
2019-05-17T16:20:59.897Z,101247.74
2019-05-17T16:23:31.886Z,101240.05
2019-05-17T16:26:04.258Z,101238.94
2019-05-17T16:28:36.228Z,101235.91
2019-05-17T16:31:08.190Z,101233.11
2019-05-17T16:33:40.261Z,101236.14
2019-05-17T16:36:12.234Z,101242.78
2019-05-17T16:38:44.255Z,101239.73
2019-05-17T16:41:16.432Z,101243.75
2019-05-17T16:43:48.690Z,101246.93
2019-05-17T16:46:20.678Z,101243.00
2019-05-17T16:48:52.753Z,101242.11
2019-05-17T16:51:24.798Z,101242.82
2019-05-17T16:53:56.884Z,101235.14
2019-05-17T16:56:28.919Z,101236.80
2019-05-17T16:59:00.977Z,101233.16
2019-05-17T17:01:33.048Z,101235.98
2019-05-17T17:04:05.505Z,101189.21
2019-05-17T17:06:37.815Z,101243.27
2019-05-17T17:09:09.795Z,101190.92
2019-05-17T17:11:41.759Z,101232.73
2019-05-17T17:14:14.024Z,101238.02
2019-05-17T17:16:46.090Z,101233.61
2019-05-17T17:19:18.444Z,101238.64
2019-05-17T17:21:52.238Z,101237.41
2019-05-17T17:24:24.403Z,101240.32
2019-05-17T17:26:56.604Z,101240.20
2019-05-17T17:29:29.154Z,101236.31
2019-05-17T17:32:01.221Z,101237.72
2019-05-17T17:34:33.310Z,101238.70
2019-05-17T17:37:05.579Z,101233.17
2019-05-17T17:39:37.555Z,101230.86
2019-05-17T17:42:10.041Z,101211.70
2019-05-17T17:44:42.105Z,101233.87
2019-05-17T17:47:14.246Z,101231.13
2019-05-17T17:49:46.945Z,101228.37
2019-05-17T17:52:18.995Z,101226.87
2019-05-17T17:54:51.071Z,101230.49
2019-05-17T17:57:23.123Z,101232.70
2019-05-17T17:59:55.762Z,101234.88
2019-05-17T18:02:27.875Z,101235.36
2019-05-17T18:04:59.949Z,101233.55
2019-05-17T18:07:31.943Z,101228.45
2019-05-17T18:10:06.142Z,101236.81
2019-05-17T18:12:38.091Z,101240.20
2019-05-17T18:15:12.492Z,101246.69
2019-05-17T18:17:44.592Z,101248.72
2019-05-17T18:20:16.640Z,101259.10
2019-05-17T18:22:48.699Z,101251.80
2019-05-17T18:25:20.970Z,101256.67
2019-05-17T18:27:53.251Z,101259.21
2019-05-17T18:30:25.340Z,101258.59
2019-05-17T18:32:57.697Z,101260.81
2019-05-17T18:35:29.970Z,101256.23
2019-05-17T18:38:02.703Z,101263.67
2019-05-17T18:40:34.831Z,101264.09
2019-05-17T18:43:07.149Z,101267.35
2019-05-17T18:45:40.073Z,101268.23
2019-05-17T18:48:12.724Z,101268.64
2019-05-17T18:50:44.796Z,101273.73
2019-05-17T18:53:17.442Z,101278.06
2019-05-17T18:55:49.559Z,101283.00
2019-05-17T18:58:21.500Z,101280.77
2019-05-17T19:00:53.452Z,101286.06
2019-05-17T19:03:25.439Z,101281.30
2019-05-17T19:05:57.390Z,101289.41
2019-05-17T19:08:29.740Z,101292.33
2019-05-17T19:11:01.797Z,101293.63
2019-05-17T19:13:33.755Z,101297.53
2019-05-17T19:16:05.967Z,101301.66
2019-05-17T19:18:37.966Z,101305.65
2019-05-17T19:21:10.044Z,101315.65
2019-05-17T19:23:42.003Z,101322.34
2019-05-17T19:26:13.970Z,101320.69
2019-05-17T19:28:45.953Z,101322.23
2019-05-17T19:31:17.909Z,101322.41
2019-05-17T19:33:52.654Z,101320.54
2019-05-17T19:36:24.696Z,101321.53
2019-05-17T19:38:57.137Z,101329.38
2019-05-17T19:41:29.076Z,101325.12
2019-05-17T19:44:01.128Z,101325.33
2019-05-17T19:46:33.245Z,101325.87
2019-05-17T19:49:06.506Z,101322.16
2019-05-17T19:51:38.556Z,101318.36
2019-05-17T19:54:10.811Z,101325.62
2019-05-17T19:56:42.941Z,101320.50
2019-05-17T19:59:15.036Z,101315.58
2019-05-17T20:01:47.708Z,101314.09
2019-05-17T20:04:20.059Z,101312.08
2019-05-17T20:06:52.052Z,101307.08
2019-05-17T20:09:24.140Z,101311.62
2019-05-17T20:11:56.175Z,101312.65
2019-05-17T20:14:28.143Z,101309.39
2019-05-17T20:17:00.118Z,101306.95
2019-05-17T20:19:32.184Z,101304.59
2019-05-17T20:22:05.479Z,101301.34
2019-05-17T20:24:37.510Z,101296.38
2019-05-17T20:27:09.580Z,101300.89
2019-05-17T20:29:41.643Z,101299.64
2019-05-17T20:32:13.749Z,101304.68
2019-05-17T20:34:45.791Z,101303.73
2019-05-17T20:37:17.889Z,101303.24
2019-05-17T20:39:49.947Z,101300.60
2019-05-17T20:42:21.909Z,101300.60
2019-05-17T20:44:54.103Z,101292.25
2019-05-17T20:47:26.077Z,101296.75
2019-05-17T20:49:58.144Z,101291.97
2019-05-17T20:52:30.127Z,101293.83
2019-05-17T20:55:02.352Z,101295.77
2019-05-17T20:57:34.454Z,101300.14
2019-05-17T21:00:09.160Z,101301.42
2019-05-17T21:02:41.759Z,101303.48
2019-05-17T21:05:19.681Z,101307.45
2019-05-17T21:07:51.727Z,101256.13
2019-05-17T21:10:23.984Z,101307.11
2019-05-17T21:12:56.094Z,101300.22
2019-05-17T21:15:28.167Z,101309.93
2019-05-17T21:18:00.196Z,101282.63
2019-05-17T21:20:32.228Z,101303.66
2019-05-17T21:23:04.591Z,101298.16
2019-05-17T21:25:36.622Z,101306.75
2019-05-17T21:28:08.837Z,101299.77
2019-05-17T21:30:41.247Z,101303.28
2019-05-17T21:33:13.307Z,101298.37
2019-05-17T21:35:45.363Z,101245.61
2019-05-17T21:38:17.467Z,101297.30
2019-05-17T21:40:49.463Z,101302.20
2019-05-17T21:43:21.451Z,101303.98
2019-05-17T21:46:03.257Z,101299.32
2019-05-17T21:48:29.062Z,101306.20
2019-05-17T21:51:02.668Z,101307.61
2019-05-17T21:53:34.724Z,101307.94
2019-05-17T21:56:06.814Z,101308.23
2019-05-17T21:58:38.846Z,101304.39
2019-05-17T22:01:17.317Z,101308.56
2019-05-17T22:03:49.565Z,101312.11
2019-05-17T22:06:21.793Z,101306.38
2019-05-17T22:08:53.907Z,101301.66
2019-05-17T22:11:25.934Z,101305.21
2019-05-17T22:13:58.228Z,101308.19
2019-05-17T22:16:30.270Z,101309.92
2019-05-17T22:19:02.381Z,101303.73
2019-05-17T22:21:34.423Z,101301.75
2019-05-17T22:24:06.396Z,101305.21
2019-05-17T22:26:38.422Z,101306.25
2019-05-17T22:29:10.461Z,101300.05
2019-05-17T22:31:42.510Z,101249.81
2019-05-17T22:34:14.554Z,101294.19
2019-05-17T22:36:46.877Z,101301.91
2019-05-17T22:39:18.916Z,101304.42
2019-05-17T22:41:50.916Z,101302.19
2019-05-17T22:44:22.941Z,101301.41
2019-05-17T22:46:54.997Z,101305.91
2019-05-17T22:49:27.369Z,101304.33
2019-05-17T22:51:59.398Z,101305.41
2019-05-17T22:54:31.450Z,101301.30
2019-05-17T22:57:03.743Z,101303.00
2019-05-17T22:59:35.754Z,101297.51
2019-05-17T23:02:07.838Z,101300.03
2019-05-17T23:04:40.023Z,101300.11
2019-05-17T23:07:12.088Z,101304.85
2019-05-17T23:09:44.126Z,101309.44
2019-05-17T23:12:16.178Z,101308.92
2019-05-17T23:14:48.220Z,101308.70
2019-05-17T23:17:20.205Z,101307.51
2019-05-17T23:19:52.636Z,101249.22
2019-05-17T23:22:24.602Z,101303.73
2019-05-17T23:24:56.628Z,101305.47
2019-05-17T23:27:28.918Z,101300.02
2019-05-17T23:30:01.069Z,101293.30
2019-05-17T23:32:33.085Z,101297.87
2019-05-17T23:35:09.034Z,101294.58
2019-05-17T23:37:41.026Z,101295.31
2019-05-17T23:40:13.567Z,101300.02
2019-05-17T23:42:45.539Z,101293.74
2019-05-17T23:45:17.568Z,101295.23
2019-05-17T23:47:49.639Z,101299.85
2019-05-17T23:50:21.734Z,101296.27
2019-05-17T23:52:54.074Z,101296.39
2019-05-17T23:55:26.117Z,101296.67
2019-05-17T23:57:58.091Z,101295.92
